Time;durP1;ratioP1;P1;durP2;ratioP2;P2;SDS_P1;SDS_P2;PMS_P1;PMS_P2;Temp;Humidity;BMP_temperature;BMP_pressure;BME280_temperature;BME280_humidity;BME280_pressure;Samples;Min_cycle;Max_cycle;Signal;HPM_P1;HPM_P2
2023/03/18 00:03:56;;;;;;;;;;;;;;;;;;10369243;28;895;-72
2023/03/18 00:08:52;;;;;;;;;;;;;;;;;;10369268;28;898;-72
2023/03/18 00:13:48;;;;;;;;;;;;;;;;;;10369760;28;1973;-72
2023/03/18 00:18:44;;;;;;;;;;;;;;;;;;10368595;28;870;-72
2023/03/18 00:23:40;;;;;;;;;;;;;;;;;;10368785;28;795;-72
2023/03/18 00:28:36;;;;;;;;;;;;;;;;;;10368456;28;897;-72
2023/03/18 00:33:32;;;;;;;;;;;;;;;;;;10368194;28;1894;-71
2023/03/18 00:38:29;;;;;;;;;;;;;;;;;;10368176;28;802;-75
2023/03/18 00:43:28;;;;;;;;;;;;;;;;;;10367933;28;1421;-75
2023/03/18 00:48:24;;;;;;;;;;;;;;;;;;10368429;28;923;-76
2023/03/18 00:53:20;;;;;;;;;;;;;;;;;;10367703;28;1987;-76
2023/03/18 00:58:16;;;;;;;;;;;;;;;;;;10367397;28;802;-75
2023/03/18 01:03:13;;;;;;;;;;;;;;;;;;10367960;28;895;-75
2023/03/18 01:08:08;;;;;;;;;;;;;;;;;;10367354;28;947;-75
2023/03/18 01:13:04;;;;;;;;;;;;;;;;;;10366582;28;1945;-75
2023/03/18 01:18:00;;;;;;;;;;;;;;;;;;10366833;28;1209;-76
2023/03/18 01:22:57;;;;;;;;;;;;;;;;;;10366972;28;850;-75
2023/03/18 01:27:53;;;;;;;;;;;;;;;;;;10366265;28;829;-75
2023/03/18 01:32:49;;;;;;;;;;;;;;;;;;10366395;28;1943;-75
2023/03/18 01:37:45;;;;;;;;;;;;;;;;;;10366277;28;968;-75
2023/03/18 01:42:41;;;;;;;;;;;;;;;;;;10367014;28;1247;-75
2023/03/18 01:47:37;;;;;;;;;;;;;;;;;;10366072;28;961;-75
2023/03/18 01:52:34;;;;;;;;;;;;;;;;;;10366143;28;1977;-75
2023/03/18 01:57:31;;;;;;;;;;;;;;;;;;10365686;28;858;-75
2023/03/18 02:02:28;;;;;;;;;;;;;;;;;;10365860;28;880;-75
2023/03/18 02:07:24;;;;;;;;;;;;;;;;;;10366367;28;927;-75
2023/03/18 02:12:20;;;;;;;;;;;;;;;;;;10365553;28;1886;-75
2023/03/18 02:17:16;;;;;;;;;;;;;;;;;;10366558;28;829;-75
2023/03/18 02:22:12;;;;;;;;;;;;;;;;;;10365107;28;1359;-75
2023/03/18 02:27:08;;;;;;;;;;;;;;;;;;10365724;28;765;-75
2023/03/18 02:32:05;;;;;;;;;;;;;;;;;;10365906;28;1973;-75
2023/03/18 02:37:00;;;;;;;;;;;;;;;;;;10365226;28;866;-75
2023/03/18 02:41:56;;;;;;;;;;;;;;;;;;10371025;28;1267;-75
2023/03/18 02:46:52;;;;;;;;;;;;;;;;;;10373151;28;945;-75
2023/03/18 02:51:49;;;;;;;;;;;;;;;;;;10372222;28;1909;-75
2023/03/18 02:56:45;;;;;;;;;;;;;;;;;;10372674;28;802;-75
2023/03/18 03:01:41;;;;;;;;;;;;;;;;;;10371972;28;1696;-75
2023/03/18 03:06:37;;;;;;;;;;;;;;;;;;10371763;28;945;-75
2023/03/18 03:11:33;;;;;;;;;;;;;;;;;;10372370;28;913;-75
2023/03/18 03:16:29;;;;;;;;;;;;;;;;;;10372121;28;1906;-75
2023/03/18 03:21:25;;;;;;;;;;;;;;;;;;10371207;28;1526;-75
2023/03/18 03:26:21;;;;;;;;;;;;;;;;;;10371567;28;859;-75
2023/03/18 03:31:17;;;;;;;;;;;;;;;;;;10370837;28;952;-75
2023/03/18 03:36:13;;;;;;;;;;;;;;;;;;10370553;28;2014;-75
2023/03/18 03:41:09;;;;;;;;;;;;;;;;;;10370279;28;1147;-75
2023/03/18 03:46:05;;;;;;;;;;;;;;;;;;10370220;28;884;-75
2023/03/18 03:51:01;;;;;;;;;;;;;;;;;;10369353;28;859;-75
2023/03/18 03:55:57;;;;;;;;;;;;;;;;;;10369994;28;1969;-75
2023/03/18 04:00:53;;;;;;;;;;;;;;;;;;10369597;28;965;-75
2023/03/18 04:05:49;;;;;;;;;;;;;;;;;;10368882;28;1020;-75
2023/03/18 04:10:45;;;;;;;;;;;;;;;;;;10369350;28;760;-75
2023/03/18 04:15:41;;;;;;;;;;;;;;;;;;10368892;28;1885;-75
2023/03/18 04:20:37;;;;;;;;;;;;;;;;;;10368884;28;842;-75
2023/03/18 04:25:34;;;;;;;;;;;;;;;;;;10368492;28;905;-75
2023/03/18 04:30:30;;;;;;;;;;;;;;;;;;10368422;28;897;-75
2023/03/18 04:35:27;;;;;;;;;;;;;;;;;;10368157;28;1952;-75
2023/03/18 04:40:22;;;;;;;;;;;;;;;;;;10368898;28;1263;-75
2023/03/18 04:45:18;;;;;;;;;;;;;;;;;;10369042;28;891;-75
2023/03/18 04:50:14;;;;;;;;;;;;;;;;;;10368643;28;955;-75
2023/03/18 04:55:10;;;;;;;;;;;;;;;;;;10367646;28;1910;-75
2023/03/18 05:00:06;;;;;;;;;;;;;;;;;;10367284;28;845;-76
2023/03/18 05:05:02;;;;;;;;;;;;;;;;;;10367402;28;940;-75
2023/03/18 05:09:58;;;;;;;;;;;;;;;;;;10367695;28;903;-75
2023/03/18 05:14:54;;;;;;;;;;;;;;;;;;10367088;28;1961;-75
2023/03/18 05:19:50;;;;;;;;;;;;;;;;;;10366801;28;786;-75
2023/03/18 05:24:46;;;;;;;;;;;;;;;;;;10366055;28;1219;-75
2023/03/18 05:29:42;;;;;;;;;;;;;;;;;;10366404;28;917;-75
2023/03/18 05:34:38;;;;;;;;;;;;;;;;;;10367091;28;1886;-75
2023/03/18 05:39:34;;;;;;;;;;;;;;;;;;10366008;28;1390;-75
2023/03/18 05:44:29;;;;;;;;;;;;;;;;;;10366617;28;904;-75
2023/03/18 05:49:26;;;;;;;;;;;;;;;;;;10365568;28;920;-78
2023/03/18 05:54:22;;;;;;;;;;;;;;;;;;10365948;28;1973;-76
2023/03/18 05:59:18;;;;;;;;;;;;;;;;;;10365103;28;1243;-77
2023/03/18 06:04:16;;;;;;;;;;;;;;;;;;10366473;28;776;-77
2023/03/18 06:09:11;;;;;;;;;;;;;;;;;;10366574;28;869;-74
2023/03/18 06:14:07;;;;;;;;;;;;;;;;;;10367998;28;1947;-74
2023/03/18 06:19:03;;;;;;;;;;;;;;;;;;10373735;28;894;-76
2023/03/18 06:23:59;;;;;;;;;;;;;;;;;;10374123;28;830;-76
2023/03/18 06:28:57;;;;;;;;;;;;;;;;;;10373330;28;822;-75
2023/03/18 06:33:53;;;;;;;;;;;;;;;;;;10373629;28;1886;-74
2023/03/18 06:38:49;;;;;;;;;;;;;;;;;;10372756;28;1282;-73
2023/03/18 06:43:49;;;;;;;;;;;;;;;;;;10373439;28;1054;-75
2023/03/18 06:48:45;;;;;;;;;;;;;;;;;;10373198;28;807;-71
2023/03/18 06:53:41;;;;;;;;;;;;;;;;;;10373377;28;1973;-78
2023/03/18 06:58:37;;;;;;;;;;;;;;;;;;10372075;28;771;-75
2023/03/18 07:03:33;;;;;;;;;;;;;;;;;;10372011;28;925;-78
2023/03/18 07:08:29;;;;;;;;;;;;;;;;;;10371838;28;842;-78
2023/03/18 07:13:25;;;;;;;;;;;;;;;;;;10371419;28;1949;-74
2023/03/18 07:18:20;;;;;;;;;;;;;;;;;;10372027;28;885;-73
2023/03/18 07:23:16;;;;;;;;;;;;;;;;;;10372086;28;906;-73
2023/03/18 07:28:12;;;;;;;;;;;;;;;;;;10371326;28;988;-72
2023/03/18 07:33:08;;;;;;;;;;;;;;;;;;10370713;28;1890;-71
2023/03/18 07:38:04;;;;;;;;;;;;;;;;;;10371281;28;902;-72
2023/03/18 07:43:00;;;;;;;;;;;;;;;;;;10371921;28;1289;-71
2023/03/18 07:47:56;;;;;;;;;;;;;;;;;;10370261;28;903;-72
2023/03/18 07:52:52;;;;;;;;;;;;;;;;;;10369977;28;1971;-73
2023/03/18 07:57:48;;;;;;;;;;;;;;;;;;10370405;28;909;-72
2023/03/18 08:02:44;;;;;;;;;;;;;;;;;;10369574;28;882;-73
2023/03/18 08:07:41;;;;;;;;;;;;;;;;;;10369163;28;886;-73
2023/03/18 08:12:37;;;;;;;;;;;;;;;;;;10369167;28;1890;-73
2023/03/18 08:17:33;;;;;;;;;;;;;;;;;;10368498;28;1074;-73
2023/03/18 08:22:29;;;;;;;;;;;;;;;;;;10369040;28;809;-74
2023/03/18 08:27:25;;;;;;;;;;;;;;;;;;10368669;28;765;-74
2023/03/18 08:32:20;;;;;;;;;;;;;;;;;;10367942;28;1947;-76
2023/03/18 08:37:16;;;;;;;;;;;;;;;;;;10367567;28;886;-75
2023/03/18 08:42:12;;;;;;;;;;;;;;;;;;10368386;28;1107;-74
2023/03/18 08:47:08;;;;;;;;;;;;;;;;;;10367777;28;926;-77
2023/03/18 08:52:05;;;;;;;;;;;;;;;;;;10367431;28;1977;-77
2023/03/18 08:57:01;;;;;;;;;;;;;;;;;;10366575;28;853;-77
2023/03/18 09:01:57;;;;;;;;;;;;;;;;;;10367154;28;838;-77
2023/03/18 09:06:53;;;;;;;;;;;;;;;;;;10366998;28;916;-80
2023/03/18 09:11:49;;;;;;;;;;;;;;;;;;10366431;28;1882;-76
2023/03/18 09:16:45;;;;;;;;;;;;;;;;;;10367592;28;794;-76
2023/03/18 09:21:41;;;;;;;;;;;;;;;;;;10364592;28;979;-77
2023/03/18 09:26:38;;;;;;;;;;;;;;;;;;10366211;28;892;-76
2023/03/18 09:31:34;;;;;;;;;;;;;;;;;;10365586;28;1252;-75
2023/03/18 09:36:30;;;;;;;;;;;;;;;;;;10366039;28;1878;-77
2023/03/18 09:41:26;;;;;;;;;;;;;;;;;;10366136;28;1092;-75
2023/03/18 09:46:21;;;;;;;;;;;;;;;;;;10367118;28;903;-75
2023/03/18 09:51:17;;;;;;;;;;;;;;;;;;10374264;28;808;-75
2023/03/18 09:56:13;;;;;;;;;;;;;;;;;;10374582;28;1984;-75
2023/03/18 10:01:09;;;;;;;;;;;;;;;;;;10374672;28;761;-75
2023/03/18 10:06:05;;;;;;;;;;;;;;;;;;10374303;28;922;-80
2023/03/18 10:11:01;;;;;;;;;;;;;;;;;;10373983;28;1036;-79
2023/03/18 10:15:57;;;;;;;;;;;;;;;;;;10373288;28;1939;-80
2023/03/18 10:20:53;;;;;;;;;;;;;;;;;;10373754;28;866;-80
2023/03/18 10:25:49;;;;;;;;;;;;;;;;;;10373241;28;872;-79
2023/03/18 10:30:45;;;;;;;;;;;;;;;;;;10373124;28;849;-80
2023/03/18 10:35:41;;;;;;;;;;;;;;;;;;10373635;28;1881;-76
2023/03/18 10:40:36;;;;;;;;;;;;;;;;;;10372772;28;1306;-76
2023/03/18 10:45:32;;;;;;;;;;;;;;;;;;10372777;28;787;-76
2023/03/18 10:50:28;;;;;;;;;;;;;;;;;;10372592;28;958;-75
2023/03/18 10:55:24;;;;;;;;;;;;;;;;;;10371821;28;1972;-76
2023/03/18 11:00:20;;;;;;;;;;;;;;;;;;10371307;28;852;-76
2023/03/18 11:05:17;;;;;;;;;;;;;;;;;;10372587;28;872;-75
2023/03/18 11:10:12;;;;;;;;;;;;;;;;;;10371582;28;795;-79
2023/03/18 11:15:08;;;;;;;;;;;;;;;;;;10371567;28;1882;-78
2023/03/18 11:20:09;;;;;;;;;;;;;;;;;;10371457;28;960;-75
2023/03/18 11:25:05;;;;;;;;;;;;;;;;;;10371963;28;805;-75
2023/03/18 11:30:01;;;;;;;;;;;;;;;;;;10371048;28;973;-75
2023/03/18 11:34:57;;;;;;;;;;;;;;;;;;10370765;28;1933;-75
2023/03/18 11:39:53;;;;;;;;;;;;;;;;;;10370577;28;1258;-75
2023/03/18 11:44:49;;;;;;;;;;;;;;;;;;10371343;28;890;-76
2023/03/18 11:49:45;;;;;;;;;;;;;;;;;;10370325;28;898;-76
2023/03/18 11:54:41;;;;;;;;;;;;;;;;;;10369032;28;1915;-78
2023/03/18 11:59:37;;;;;;;;;;;;;;;;;;10369900;28;761;-76
2023/03/18 12:04:33;;;;;;;;;;;;;;;;;;10369671;28;949;-76
2023/03/18 12:09:29;;;;;;;;;;;;;;;;;;10370907;28;883;-78
2023/03/18 12:14:25;;;;;;;;;;;;;;;;;;10369191;28;1890;-81
2023/03/18 12:19:20;;;;;;;;;;;;;;;;;;10368489;28;1337;-76
2023/03/18 12:24:16;;;;;;;;;;;;;;;;;;10369553;28;798;-79
2023/03/18 12:29:13;;;;;;;;;;;;;;;;;;10368659;28;764;-79
2023/03/18 12:34:09;;;;;;;;;;;;;;;;;;10369093;28;1954;-80
2023/03/18 12:39:04;;;;;;;;;;;;;;;;;;10368508;28;1071;-79
2023/03/18 12:44:00;;;;;;;;;;;;;;;;;;10368661;28;877;-80
2023/03/18 12:48:56;;;;;;;;;;;;;;;;;;10367974;28;772;-80
2023/03/18 12:53:52;;;;;;;;;;;;;;;;;;10368092;28;1971;-77
2023/03/18 12:58:49;;;;;;;;;;;;;;;;;;10363910;28;991;-80
2023/03/18 13:03:44;;;;;;;;;;;;;;;;;;10367429;28;929;-78
2023/03/18 13:08:40;;;;;;;;;;;;;;;;;;10366866;28;949;-77
2023/03/18 13:13:37;;;;;;;;;;;;;;;;;;10366501;28;1894;-74
2023/03/18 13:18:32;;;;;;;;;;;;;;;;;;10366922;28;906;-75
2023/03/18 13:23:28;;;;;;;;;;;;;;;;;;10366989;28;980;-75
2023/03/18 13:28:24;;;;;;;;;;;;;;;;;;10366710;28;783;-75
2023/03/18 13:33:20;;;;;;;;;;;;;;;;;;10367024;28;1894;-75
2023/03/18 13:38:16;;;;;;;;;;;;;;;;;;10364171;28;959;-76
2023/03/18 13:43:12;;;;;;;;;;;;;;;;;;10364791;28;1302;-76
2023/03/18 13:48:08;;;;;;;;;;;;;;;;;;10364971;28;843;-76
2023/03/18 13:53:04;;;;;;;;;;;;;;;;;;10366287;28;1914;-76
2023/03/18 13:58:00;;;;;;;;;;;;;;;;;;10365682;28;893;-76
2023/03/18 14:02:55;;;;;;;;;;;;;;;;;;10365454;28;890;-74
2023/03/18 14:07:52;;;;;;;;;;;;;;;;;;10365064;28;787;-75
2023/03/18 14:12:48;;;;;;;;;;;;;;;;;;10365092;28;1886;-74
2023/03/18 14:17:45;;;;;;;;;;;;;;;;;;10365678;28;973;-74
2023/03/18 14:22:41;;;;;;;;;;;;;;;;;;10365643;28;799;-74
2023/03/18 14:27:37;;;;;;;;;;;;;;;;;;10365287;28;868;-74
2023/03/18 14:32:33;;;;;;;;;;;;;;;;;;10364631;28;1955;-74
2023/03/18 14:37:29;;;;;;;;;;;;;;;;;;10370355;28;769;-74
2023/03/18 14:42:25;;;;;;;;;;;;;;;;;;10370527;28;1175;-74
2023/03/18 14:47:21;;;;;;;;;;;;;;;;;;10372442;28;872;-72
2023/03/18 14:52:17;;;;;;;;;;;;;;;;;;10369772;28;1909;-72
2023/03/18 14:57:15;;;;;;;;;;;;;;;;;;10369794;28;892;-72
2023/03/18 15:02:10;;;;;;;;;;;;;;;;;;10371193;28;964;-72
2023/03/18 15:07:06;;;;;;;;;;;;;;;;;;10371740;28;857;-72
2023/03/18 15:12:02;;;;;;;;;;;;;;;;;;10371002;28;1906;-69
2023/03/18 15:16:58;;;;;;;;;;;;;;;;;;10371611;28;862;-69
2023/03/18 15:21:54;;;;;;;;;;;;;;;;;;10371817;28;885;-67
2023/03/18 15:26:50;;;;;;;;;;;;;;;;;;10370890;28;921;-68
2023/03/18 15:31:46;;;;;;;;;;;;;;;;;;10370790;28;901;-68
2023/03/18 15:36:41;;;;;;;;;;;;;;;;;;10370545;28;1902;-68
2023/03/18 15:41:38;;;;;;;;;;;;;;;;;;10370383;28;1251;-68
2023/03/18 15:46:34;;;;;;;;;;;;;;;;;;10369791;28;901;-68
2023/03/18 15:51:30;;;;;;;;;;;;;;;;;;10370493;28;917;-68
2023/03/18 15:56:25;;;;;;;;;;;;;;;;;;10369777;28;1914;-67
2023/03/18 16:01:21;;;;;;;;;;;;;;;;;;10370035;28;1182;-68
2023/03/18 16:06:17;;;;;;;;;;;;;;;;;;10369661;28;905;-70
2023/03/18 16:11:13;;;;;;;;;;;;;;;;;;10369152;28;1000;-69
2023/03/18 16:16:09;;;;;;;;;;;;;;;;;;10368095;28;1949;-70
2023/03/18 16:21:05;;;;;;;;;;;;;;;;;;10369100;28;1114;-70
2023/03/18 16:26:01;;;;;;;;;;;;;;;;;;10368459;28;818;-70
2023/03/18 16:30:57;;;;;;;;;;;;;;;;;;10368643;28;964;-70
2023/03/18 16:35:53;;;;;;;;;;;;;;;;;;10368142;28;1882;-70
2023/03/18 16:40:50;;;;;;;;;;;;;;;;;;10368249;28;1173;-70
2023/03/18 16:45:46;;;;;;;;;;;;;;;;;;10367585;28;886;-70
2023/03/18 16:50:42;;;;;;;;;;;;;;;;;;10368432;28;798;-70
2023/03/18 16:55:38;;;;;;;;;;;;;;;;;;10367270;28;1922;-70
2023/03/18 17:00:34;;;;;;;;;;;;;;;;;;10367664;28;823;-70
2023/03/18 17:05:30;;;;;;;;;;;;;;;;;;10365781;28;862;-70
2023/03/18 17:10:25;;;;;;;;;;;;;;;;;;10367255;28;956;-70
2023/03/18 17:15:21;;;;;;;;;;;;;;;;;;10366636;28;1894;-70
2023/03/18 17:20:18;;;;;;;;;;;;;;;;;;10366937;28;878;-80
2023/03/18 17:25:14;;;;;;;;;;;;;;;;;;10366285;28;961;-70
2023/03/18 17:30:10;;;;;;;;;;;;;;;;;;10366683;28;870;-70
2023/03/18 17:35:07;;;;;;;;;;;;;;;;;;10366005;28;1889;-82
2023/03/18 17:40:03;;;;;;;;;;;;;;;;;;10366427;28;1180;-84
2023/03/18 17:44:59;;;;;;;;;;;;;;;;;;10365876;28;917;-81
2023/03/18 17:49:55;;;;;;;;;;;;;;;;;;10367483;28;892;-81
2023/03/18 17:54:51;;;;;;;;;;;;;;;;;;10365691;28;1919;-80
2023/03/18 17:59:47;;;;;;;;;;;;;;;;;;10366107;28;775;-69
2023/03/18 18:04:43;;;;;;;;;;;;;;;;;;10366067;28;874;-69
2023/03/18 18:09:39;;;;;;;;;;;;;;;;;;10368143;28;937;-71
2023/03/18 18:14:36;;;;;;;;;;;;;;;;;;10374679;28;1895;-68
2023/03/18 18:19:33;;;;;;;;;;;;;;;;;;10373729;28;886;-68
2023/03/18 18:24:29;;;;;;;;;;;;;;;;;;10373706;28;847;-70
2023/03/18 18:29:26;;;;;;;;;;;;;;;;;;10374346;28;774;-68
2023/03/18 18:34:22;;;;;;;;;;;;;;;;;;10373230;28;1945;-69
2023/03/18 18:39:19;;;;;;;;;;;;;;;;;;10372489;28;1244;-68
2023/03/18 18:44:15;;;;;;;;;;;;;;;;;;10373185;28;938;-68
2023/03/18 18:49:11;;;;;;;;;;;;;;;;;;10372924;28;803;-68
2023/03/18 18:54:07;;;;;;;;;;;;;;;;;;10373094;28;1975;-68
2023/03/18 18:59:04;;;;;;;;;;;;;;;;;;10372384;28;880;-69
2023/03/18 19:04:01;;;;;;;;;;;;;;;;;;10371424;28;1081;-72
2023/03/18 19:08:57;;;;;;;;;;;;;;;;;;10371934;28;906;-71
2023/03/18 19:13:54;;;;;;;;;;;;;;;;;;10372372;28;1917;-71
2023/03/18 19:18:49;;;;;;;;;;;;;;;;;;10372204;28;858;-72
2023/03/18 19:23:46;;;;;;;;;;;;;;;;;;10370634;28;914;-72
2023/03/18 19:33:49;;;;;;;;;;;;;;;;;;10370407;28;1886;-71
2023/03/18 19:38:45;;;;;;;;;;;;;;;;;;10371241;28;1251;-76
2023/03/18 19:43:41;;;;;;;;;;;;;;;;;;10371441;28;862;-75
2023/03/18 19:48:37;;;;;;;;;;;;;;;;;;10370413;28;1048;-75
2023/03/18 19:53:33;;;;;;;;;;;;;;;;;;10370275;28;1922;-76
2023/03/18 19:58:29;;;;;;;;;;;;;;;;;;10369480;28;849;-76
2023/03/18 20:03:24;;;;;;;;;;;;;;;;;;10369853;28;914;-76
2023/03/18 20:08:20;;;;;;;;;;;;;;;;;;10369088;28;835;-75
2023/03/18 20:13:16;;;;;;;;;;;;;;;;;;10369457;28;1906;-75
2023/03/18 20:18:12;;;;;;;;;;;;;;;;;;10369223;28;862;-76
2023/03/18 20:23:08;;;;;;;;;;;;;;;;;;10369197;28;859;-76
2023/03/18 20:28:04;;;;;;;;;;;;;;;;;;10369515;28;894;-76
2023/03/18 20:33:03;;;;;;;;;;;;;;;;;;10368196;28;1947;-76
2023/03/18 20:37:58;;;;;;;;;;;;;;;;;;10369106;28;901;-77
2023/03/18 20:42:54;;;;;;;;;;;;;;;;;;10368294;28;1521;-76
2023/03/18 20:47:50;;;;;;;;;;;;;;;;;;10368744;28;842;-75
2023/03/18 20:52:46;;;;;;;;;;;;;;;;;;10368529;28;1918;-76
2023/03/18 20:57:42;;;;;;;;;;;;;;;;;;10367785;28;795;-76
2023/03/18 21:02:38;;;;;;;;;;;;;;;;;;10368229;28;927;-76
2023/03/18 21:07:34;;;;;;;;;;;;;;;;;;10367534;28;860;-75
2023/03/18 21:12:30;;;;;;;;;;;;;;;;;;10367185;28;1957;-74
2023/03/18 21:17:26;;;;;;;;;;;;;;;;;;10367696;28;892;-73
2023/03/18 21:22:22;;;;;;;;;;;;;;;;;;10366942;28;870;-72
2023/03/18 21:27:21;;;;;;;;;;;;;;;;;;10366852;28;791;-72
2023/03/18 21:32:16;;;;;;;;;;;;;;;;;;10366610;28;1890;-72
2023/03/18 21:37:12;;;;;;;;;;;;;;;;;;10366525;28;865;-72
2023/03/18 21:42:08;;;;;;;;;;;;;;;;;;10367064;28;1185;-72
2023/03/18 21:47:05;;;;;;;;;;;;;;;;;;10366804;28;909;-73
2023/03/18 21:52:01;;;;;;;;;;;;;;;;;;10366218;28;849;-73
2023/03/18 21:56:57;;;;;;;;;;;;;;;;;;10367121;28;1979;-72
2023/03/18 22:01:53;;;;;;;;;;;;;;;;;;10366097;28;875;-72
2023/03/18 22:06:48;;;;;;;;;;;;;;;;;;10365977;28;783;-72
2023/03/18 22:11:44;;;;;;;;;;;;;;;;;;10365912;28;863;-72
2023/03/18 22:16:40;;;;;;;;;;;;;;;;;;10366426;28;1952;-72
2023/03/18 22:21:36;;;;;;;;;;;;;;;;;;10366340;28;846;-73
2023/03/18 22:26:32;;;;;;;;;;;;;;;;;;10365044;28;910;-73
2023/03/18 22:31:28;;;;;;;;;;;;;;;;;;10366123;28;807;-72
2023/03/18 22:36:24;;;;;;;;;;;;;;;;;;10365975;28;1939;-72
2023/03/18 22:41:20;;;;;;;;;;;;;;;;;;10365472;28;1374;-72
2023/03/18 22:46:16;;;;;;;;;;;;;;;;;;10365246;28;1490;-72
2023/03/18 22:51:12;;;;;;;;;;;;;;;;;;10365086;28;949;-72
2023/03/18 22:56:08;;;;;;;;;;;;;;;;;;10367239;28;1991;-72
2023/03/18 23:01:03;;;;;;;;;;;;;;;;;;10372341;28;890;-72
2023/03/18 23:05:59;;;;;;;;;;;;;;;;;;10372156;28;905;-72
2023/03/18 23:10:56;;;;;;;;;;;;;;;;;;10372603;28;939;-72
2023/03/18 23:15:52;;;;;;;;;;;;;;;;;;10372402;28;1945;-72
2023/03/18 23:20:48;;;;;;;;;;;;;;;;;;10372173;28;916;-72
2023/03/18 23:25:44;;;;;;;;;;;;;;;;;;10370841;28;1268;-72
2023/03/18 23:30:40;;;;;;;;;;;;;;;;;;10371224;28;901;-72
2023/03/18 23:35:36;;;;;;;;;;;;;;;;;;10371240;28;1886;-72
2023/03/18 23:40:32;;;;;;;;;;;;;;;;;;10370872;28;1128;-72
2023/03/18 23:45:28;;;;;;;;;;;;;;;;;;10371327;28;978;-72
2023/03/18 23:50:24;;;;;;;;;;;;;;;;;;10370509;28;786;-72
2023/03/18 23:55:20;;;;;;;;;;;;;;;;;;10370636;28;1910;-72
